sensor_id;sensor_type;location;lat;lon;timestamp;pressure;altitude;pressure_sealevel;temperature;humidity
34065;BME280;20339;49.754;20.158;2023-05-02T00:00:35;96684.22;;;10.02;45.65
34065;BME280;20339;49.754;20.158;2023-05-02T00:03:19;96684.17;;;10.26;45.31
34065;BME280;20339;49.754;20.158;2023-05-02T00:05:51;96685.52;;;10.40;44.87
34065;BME280;20339;49.754;20.158;2023-05-02T00:08:22;96685.29;;;10.45;44.77
34065;BME280;20339;49.754;20.158;2023-05-02T00:10:58;96686.59;;;10.49;44.64
34065;BME280;20339;49.754;20.158;2023-05-02T00:13:31;96688.27;;;10.44;44.90
34065;BME280;20339;49.754;20.158;2023-05-02T00:16:03;96692.55;;;10.36;45.17
34065;BME280;20339;49.754;20.158;2023-05-02T00:18:35;96688.52;;;10.22;45.52
34065;BME280;20339;49.754;20.158;2023-05-02T00:21:06;96686.66;;;10.11;45.71
34065;BME280;20339;49.754;20.158;2023-05-02T00:23:38;96681.09;;;10.04;45.94
34065;BME280;20339;49.754;20.158;2023-05-02T00:26:10;96681.73;;;9.98;45.96
34065;BME280;20339;49.754;20.158;2023-05-02T00:28:41;96686.84;;;9.95;45.79
34065;BME280;20339;49.754;20.158;2023-05-02T00:31:15;96687.79;;;9.99;45.58
34065;BME280;20339;49.754;20.158;2023-05-02T00:33:49;96687.79;;;10.01;45.47
34065;BME280;20339;49.754;20.158;2023-05-02T00:36:20;96686.27;;;10.07;45.42
34065;BME280;20339;49.754;20.158;2023-05-02T00:38:51;96684.56;;;10.08;45.25
34065;BME280;20339;49.754;20.158;2023-05-02T00:41:25;96686.51;;;10.10;45.25
34065;BME280;20339;49.754;20.158;2023-05-02T00:44:00;96684.68;;;10.06;45.32
34065;BME280;20339;49.754;20.158;2023-05-02T00:46:32;96690.42;;;10.01;45.27
34065;BME280;20339;49.754;20.158;2023-05-02T00:49:05;96691.60;;;9.97;45.04
34065;BME280;20339;49.754;20.158;2023-05-02T00:51:40;96691.91;;;9.90;45.12
34065;BME280;20339;49.754;20.158;2023-05-02T00:54:16;96694.88;;;9.85;45.08
34065;BME280;20339;49.754;20.158;2023-05-02T00:56:48;96697.10;;;9.83;45.27
34065;BME280;20339;49.754;20.158;2023-05-02T00:59:21;96696.13;;;9.79;45.49
34065;BME280;20339;49.754;20.158;2023-05-02T01:02:08;96696.03;;;9.77;45.73
34065;BME280;20339;49.754;20.158;2023-05-02T01:04:53;96693.50;;;9.76;45.59
34065;BME280;20339;49.754;20.158;2023-05-02T01:07:40;96693.15;;;9.83;45.61
34065;BME280;20339;49.754;20.158;2023-05-02T01:10:22;96691.45;;;9.87;45.69
34065;BME280;20339;49.754;20.158;2023-05-02T01:13:05;96698.50;;;9.81;45.79
34065;BME280;20339;49.754;20.158;2023-05-02T01:15:43;96699.58;;;9.78;45.89
34065;BME280;20339;49.754;20.158;2023-05-02T01:18:17;96701.31;;;9.80;45.72
34065;BME280;20339;49.754;20.158;2023-05-02T01:20:52;96701.63;;;9.79;45.70
34065;BME280;20339;49.754;20.158;2023-05-02T01:23:34;96702.29;;;9.75;45.70
34065;BME280;20339;49.754;20.158;2023-05-02T01:26:16;96704.37;;;9.70;45.91
34065;BME280;20339;49.754;20.158;2023-05-02T01:29:02;96700.16;;;9.63;45.92
34065;BME280;20339;49.754;20.158;2023-05-02T01:31:36;96698.01;;;9.58;45.75
34065;BME280;20339;49.754;20.158;2023-05-02T01:34:10;96695.73;;;9.57;45.90
34065;BME280;20339;49.754;20.158;2023-05-02T01:36:44;96694.65;;;9.56;45.82
34065;BME280;20339;49.754;20.158;2023-05-02T01:39:20;96690.27;;;9.55;45.60
34065;BME280;20339;49.754;20.158;2023-05-02T01:41:54;96689.95;;;9.56;45.45
34065;BME280;20339;49.754;20.158;2023-05-02T01:44:27;96689.95;;;9.55;45.50
34065;BME280;20339;49.754;20.158;2023-05-02T01:47:01;96691.11;;;9.53;45.52
34065;BME280;20339;49.754;20.158;2023-05-02T01:49:33;96690.92;;;9.49;45.78
34065;BME280;20339;49.754;20.158;2023-05-02T01:52:10;96690.30;;;9.43;45.88
34065;BME280;20339;49.754;20.158;2023-05-02T01:54:43;96690.32;;;9.36;46.34
34065;BME280;20339;49.754;20.158;2023-05-02T01:57:16;96693.20;;;9.28;46.22
34065;BME280;20339;49.754;20.158;2023-05-02T01:59:50;96692.36;;;9.17;46.72
34065;BME280;20339;49.754;20.158;2023-05-02T02:02:25;96699.83;;;9.03;47.05
34065;BME280;20339;49.754;20.158;2023-05-02T02:04:58;96703.23;;;8.94;47.13
34065;BME280;20339;49.754;20.158;2023-05-02T02:07:29;96703.50;;;8.88;47.05
34065;BME280;20339;49.754;20.158;2023-05-02T02:10:01;96708.09;;;8.85;47.52
34065;BME280;20339;49.754;20.158;2023-05-02T02:12:37;96711.36;;;8.74;47.51
34065;BME280;20339;49.754;20.158;2023-05-02T02:15:18;96708.40;;;8.67;47.44
34065;BME280;20339;49.754;20.158;2023-05-02T02:17:56;96708.61;;;8.63;47.48
34065;BME280;20339;49.754;20.158;2023-05-02T02:20:29;96711.20;;;8.60;47.59
34065;BME280;20339;49.754;20.158;2023-05-02T02:23:05;96716.35;;;8.58;47.60
34065;BME280;20339;49.754;20.158;2023-05-02T02:25:38;96716.88;;;8.56;47.84
34065;BME280;20339;49.754;20.158;2023-05-02T02:28:09;96725.60;;;8.52;47.95
34065;BME280;20339;49.754;20.158;2023-05-02T02:30:41;96724.97;;;8.50;48.25
34065;BME280;20339;49.754;20.158;2023-05-02T02:33:12;96722.96;;;8.50;48.44
34065;BME280;20339;49.754;20.158;2023-05-02T02:35:49;96720.85;;;8.51;48.40
34065;BME280;20339;49.754;20.158;2023-05-02T02:38:28;96724.07;;;8.47;48.42
34065;BME280;20339;49.754;20.158;2023-05-02T02:41:09;96724.36;;;8.40;48.61
34065;BME280;20339;49.754;20.158;2023-05-02T02:43:47;96725.41;;;8.39;48.44
34065;BME280;20339;49.754;20.158;2023-05-02T02:46:37;96728.90;;;8.34;48.63
34065;BME280;20339;49.754;20.158;2023-05-02T02:49:23;96728.92;;;8.33;48.48
34065;BME280;20339;49.754;20.158;2023-05-02T02:52:04;96728.69;;;8.37;48.34
34065;BME280;20339;49.754;20.158;2023-05-02T02:54:51;96729.64;;;8.41;48.21
34065;BME280;20339;49.754;20.158;2023-05-02T02:57:30;96728.09;;;8.48;47.91
34065;BME280;20339;49.754;20.158;2023-05-02T03:00:09;96727.66;;;8.53;47.67
34065;BME280;20339;49.754;20.158;2023-05-02T03:02:43;96725.55;;;8.57;47.47
34065;BME280;20339;49.754;20.158;2023-05-02T03:05:18;96723.63;;;8.63;47.22
34065;BME280;20339;49.754;20.158;2023-05-02T03:07:49;96726.95;;;8.72;46.87
34065;BME280;20339;49.754;20.158;2023-05-02T03:10:22;96729.39;;;8.83;46.64
34065;BME280;20339;49.754;20.158;2023-05-02T03:12:53;96730.61;;;8.93;46.32
34065;BME280;20339;49.754;20.158;2023-05-02T03:15:44;96727.34;;;9.05;45.70
34065;BME280;20339;49.754;20.158;2023-05-02T03:18:25;96730.08;;;9.20;45.19
34065;BME280;20339;49.754;20.158;2023-05-02T03:20:56;96735.73;;;9.32;45.04
34065;BME280;20339;49.754;20.158;2023-05-02T03:23:27;96730.64;;;9.36;44.88
34065;BME280;20339;49.754;20.158;2023-05-02T03:25:58;96731.27;;;9.40;44.78
34065;BME280;20339;49.754;20.158;2023-05-02T03:28:30;96730.58;;;9.41;44.63
34065;BME280;20339;49.754;20.158;2023-05-02T03:31:01;96732.48;;;9.39;44.93
34065;BME280;20339;49.754;20.158;2023-05-02T03:33:32;96735.15;;;9.34;45.08
34065;BME280;20339;49.754;20.158;2023-05-02T03:36:05;96735.26;;;9.28;45.34
34065;BME280;20339;49.754;20.158;2023-05-02T03:38:37;96734.41;;;9.24;45.25
34065;BME280;20339;49.754;20.158;2023-05-02T03:41:08;96739.06;;;9.21;45.25
34065;BME280;20339;49.754;20.158;2023-05-02T03:43:39;96740.93;;;9.19;45.49
34065;BME280;20339;49.754;20.158;2023-05-02T03:46:11;96742.89;;;9.08;46.42
34065;BME280;20339;49.754;20.158;2023-05-02T03:48:42;96739.66;;;8.89;46.93
34065;BME280;20339;49.754;20.158;2023-05-02T03:51:15;96742.14;;;8.76;47.40
34065;BME280;20339;49.754;20.158;2023-05-02T03:53:46;96743.16;;;8.72;47.57
34065;BME280;20339;49.754;20.158;2023-05-02T03:56:19;96743.70;;;8.66;47.87
34065;BME280;20339;49.754;20.158;2023-05-02T03:58:50;96741.37;;;8.60;48.29
34065;BME280;20339;49.754;20.158;2023-05-02T04:01:23;96749.15;;;8.60;48.31
34065;BME280;20339;49.754;20.158;2023-05-02T04:03:54;96748.52;;;8.69;48.33
34065;BME280;20339;49.754;20.158;2023-05-02T04:06:26;96744.04;;;8.77;48.50
34065;BME280;20339;49.754;20.158;2023-05-02T04:08:57;96747.84;;;8.82;48.52
34065;BME280;20339;49.754;20.158;2023-05-02T04:11:38;96744.93;;;8.84;48.88
34065;BME280;20339;49.754;20.158;2023-05-02T04:14:10;96744.09;;;8.77;49.10
34065;BME280;20339;49.754;20.158;2023-05-02T04:16:42;96744.14;;;8.78;49.20
34065;BME280;20339;49.754;20.158;2023-05-02T04:19:18;96745.95;;;8.90;50.08
34065;BME280;20339;49.754;20.158;2023-05-02T04:21:49;96746.36;;;8.91;51.40
34065;BME280;20339;49.754;20.158;2023-05-02T04:24:21;96746.61;;;8.72;51.77
34065;BME280;20339;49.754;20.158;2023-05-02T04:26:53;96750.49;;;8.78;52.11
34065;BME280;20339;49.754;20.158;2023-05-02T04:29:24;96752.09;;;9.03;50.93
34065;BME280;20339;49.754;20.158;2023-05-02T04:31:55;96754.30;;;9.36;50.12
34065;BME280;20339;49.754;20.158;2023-05-02T04:34:27;96748.02;;;9.80;48.17
34065;BME280;20339;49.754;20.158;2023-05-02T04:36:59;96745.04;;;10.42;47.42
34065;BME280;20339;49.754;20.158;2023-05-02T04:39:31;96738.86;;;11.15;47.14
34065;BME280;20339;49.754;20.158;2023-05-02T04:42:04;96741.79;;;12.11;46.69
34065;BME280;20339;49.754;20.158;2023-05-02T04:44:35;96750.27;;;13.04;46.16
34065;BME280;20339;49.754;20.158;2023-05-02T04:47:07;96746.52;;;13.67;44.31
34065;BME280;20339;49.754;20.158;2023-05-02T04:49:38;96751.35;;;14.07;42.52
34065;BME280;20339;49.754;20.158;2023-05-02T04:52:10;96752.52;;;14.46;42.31
34065;BME280;20339;49.754;20.158;2023-05-02T04:54:42;96753.33;;;14.96;41.41
34065;BME280;20339;49.754;20.158;2023-05-02T04:57:13;96745.63;;;15.45;40.89
34065;BME280;20339;49.754;20.158;2023-05-02T04:59:44;96749.81;;;16.20;40.06
34065;BME280;20339;49.754;20.158;2023-05-02T05:02:16;96754.91;;;16.68;38.29
34065;BME280;20339;49.754;20.158;2023-05-02T05:04:47;96756.63;;;17.14;37.59
34065;BME280;20339;49.754;20.158;2023-05-02T05:07:18;96750.71;;;17.35;35.32
34065;BME280;20339;49.754;20.158;2023-05-02T05:09:50;96753.27;;;17.22;35.66
34065;BME280;20339;49.754;20.158;2023-05-02T05:12:21;96749.22;;;18.24;36.21
34065;BME280;20339;49.754;20.158;2023-05-02T05:14:52;96751.95;;;19.60;35.67
34065;BME280;20339;49.754;20.158;2023-05-02T05:17:23;96746.36;;;20.79;34.73
34065;BME280;20339;49.754;20.158;2023-05-02T05:19:56;96748.89;;;21.81;32.56
34065;BME280;20339;49.754;20.158;2023-05-02T05:22:27;96751.25;;;21.67;30.11
34065;BME280;20339;49.754;20.158;2023-05-02T05:24:58;96749.81;;;19.99;29.95
34065;BME280;20339;49.754;20.158;2023-05-02T05:27:32;96756.23;;;18.68;30.20
34065;BME280;20339;49.754;20.158;2023-05-02T05:30:04;96758.61;;;18.09;31.38
34065;BME280;20339;49.754;20.158;2023-05-02T05:32:38;96758.59;;;18.22;32.01
34065;BME280;20339;49.754;20.158;2023-05-02T05:35:13;96756.52;;;18.99;31.73
34065;BME280;20339;49.754;20.158;2023-05-02T05:37:45;96755.45;;;19.48;31.17
34065;BME280;20339;49.754;20.158;2023-05-02T05:40:17;96751.95;;;19.96;29.82
34065;BME280;20339;49.754;20.158;2023-05-02T05:42:48;96754.02;;;20.10;29.87
34065;BME280;20339;49.754;20.158;2023-05-02T05:45:19;96753.02;;;19.75;30.08
34065;BME280;20339;49.754;20.158;2023-05-02T05:47:51;96760.70;;;18.74;31.30
34065;BME280;20339;49.754;20.158;2023-05-02T05:50:24;96759.03;;;18.51;32.49
34065;BME280;20339;49.754;20.158;2023-05-02T05:52:56;96763.93;;;18.49;33.11
34065;BME280;20339;49.754;20.158;2023-05-02T05:55:30;96768.20;;;18.13;33.04
34065;BME280;20339;49.754;20.158;2023-05-02T05:58:01;96770.23;;;17.07;33.89
34065;BME280;20339;49.754;20.158;2023-05-02T06:00:35;96766.65;;;16.30;34.35
34065;BME280;20339;49.754;20.158;2023-05-02T06:03:10;96770.63;;;15.72;35.23
34065;BME280;20339;49.754;20.158;2023-05-02T06:05:44;96774.23;;;15.27;36.05
34065;BME280;20339;49.754;20.158;2023-05-02T06:08:16;96780.06;;;14.92;36.41
34065;BME280;20339;49.754;20.158;2023-05-02T06:10:48;96781.19;;;14.60;37.03
34065;BME280;20339;49.754;20.158;2023-05-02T06:13:20;96779.17;;;14.27;37.64
34065;BME280;20339;49.754;20.158;2023-05-02T06:15:51;96783.65;;;13.94;38.33
34065;BME280;20339;49.754;20.158;2023-05-02T06:18:23;96789.52;;;13.63;38.97
34065;BME280;20339;49.754;20.158;2023-05-02T06:20:55;96793.71;;;13.32;39.28
34065;BME280;20339;49.754;20.158;2023-05-02T06:23:27;96798.80;;;13.08;40.00
34065;BME280;20339;49.754;20.158;2023-05-02T06:26:00;96803.11;;;12.82;40.66
34065;BME280;20339;49.754;20.158;2023-05-02T06:28:32;96804.15;;;12.60;41.24
34065;BME280;20339;49.754;20.158;2023-05-02T06:31:04;96807.64;;;12.58;41.54
34065;BME280;20339;49.754;20.158;2023-05-02T06:33:36;96809.08;;;12.69;41.64
34065;BME280;20339;49.754;20.158;2023-05-02T06:36:10;96811.20;;;12.74;41.44
34065;BME280;20339;49.754;20.158;2023-05-02T06:38:41;96811.70;;;12.76;41.50
34065;BME280;20339;49.754;20.158;2023-05-02T06:41:15;96813.19;;;12.79;41.41
34065;BME280;20339;49.754;20.158;2023-05-02T06:43:46;96821.65;;;12.88;41.41
34065;BME280;20339;49.754;20.158;2023-05-02T06:46:17;96816.27;;;13.08;41.24
34065;BME280;20339;49.754;20.158;2023-05-02T06:48:49;96814.74;;;13.65;41.15
34065;BME280;20339;49.754;20.158;2023-05-02T06:51:21;96815.63;;;14.90;39.82
34065;BME280;20339;49.754;20.158;2023-05-02T06:53:52;96814.34;;;16.08;38.67
34065;BME280;20339;49.754;20.158;2023-05-02T06:56:24;96820.87;;;16.80;37.69
34065;BME280;20339;49.754;20.158;2023-05-02T06:59:01;96819.67;;;17.35;36.90
34065;BME280;20339;49.754;20.158;2023-05-02T07:01:35;96816.00;;;18.08;36.99
34065;BME280;20339;49.754;20.158;2023-05-02T07:04:07;96814.38;;;19.16;36.95
34065;BME280;20339;49.754;20.158;2023-05-02T07:06:39;96816.27;;;19.99;35.81
34065;BME280;20339;49.754;20.158;2023-05-02T07:09:10;96818.71;;;20.06;35.08
34065;BME280;20339;49.754;20.158;2023-05-02T07:11:42;96816.27;;;19.95;35.02
34065;BME280;20339;49.754;20.158;2023-05-02T07:14:13;96813.27;;;20.25;34.48
34065;BME280;20339;49.754;20.158;2023-05-02T07:16:45;96820.73;;;20.21;34.09
34065;BME280;20339;49.754;20.158;2023-05-02T07:19:19;96817.27;;;20.14;33.85
34065;BME280;20339;49.754;20.158;2023-05-02T07:22:02;96819.95;;;19.40;33.76
34065;BME280;20339;49.754;20.158;2023-05-02T07:24:38;96822.28;;;18.62;34.75
34065;BME280;20339;49.754;20.158;2023-05-02T07:27:11;96826.41;;;18.02;35.58
34065;BME280;20339;49.754;20.158;2023-05-02T07:29:43;96832.00;;;17.47;35.96
34065;BME280;20339;49.754;20.158;2023-05-02T07:32:15;96830.27;;;17.09;36.26
34065;BME280;20339;49.754;20.158;2023-05-02T07:34:49;96831.11;;;16.87;36.62
34065;BME280;20339;49.754;20.158;2023-05-02T07:37:26;96833.98;;;17.16;37.15
34065;BME280;20339;49.754;20.158;2023-05-02T07:39:59;96827.08;;;18.97;36.38
34065;BME280;20339;49.754;20.158;2023-05-02T07:42:34;96830.58;;;20.14;34.55
34065;BME280;20339;49.754;20.158;2023-05-02T07:45:08;96831.08;;;19.57;34.50
34065;BME280;20339;49.754;20.158;2023-05-02T07:47:42;96836.52;;;18.80;35.00
34065;BME280;20339;49.754;20.158;2023-05-02T07:50:14;96837.84;;;17.84;35.96
34065;BME280;20339;49.754;20.158;2023-05-02T07:52:46;96835.64;;;17.56;36.91
34065;BME280;20339;49.754;20.158;2023-05-02T07:55:17;96837.66;;;17.41;37.41
34065;BME280;20339;49.754;20.158;2023-05-02T07:57:49;96836.17;;;17.30;38.04
34065;BME280;20339;49.754;20.158;2023-05-02T08:00:20;96836.88;;;17.24;38.16
34065;BME280;20339;49.754;20.158;2023-05-02T08:02:51;96834.08;;;17.19;38.67
34065;BME280;20339;49.754;20.158;2023-05-02T08:05:25;96832.44;;;17.65;38.93
34065;BME280;20339;49.754;20.158;2023-05-02T08:07:56;96829.55;;;19.14;38.55
34065;BME280;20339;49.754;20.158;2023-05-02T08:10:29;96828.41;;;21.57;37.10
34065;BME280;20339;49.754;20.158;2023-05-02T08:13:00;96821.32;;;24.03;35.06
34065;BME280;20339;49.754;20.158;2023-05-02T08:15:31;96822.45;;;26.18;33.23
34065;BME280;20339;49.754;20.158;2023-05-02T08:18:02;96822.73;;;27.81;31.25
34065;BME280;20339;49.754;20.158;2023-05-02T08:20:33;96819.00;;;29.28;29.63
34065;BME280;20339;49.754;20.158;2023-05-02T08:23:04;96819.38;;;30.39;28.14
34065;BME280;20339;49.754;20.158;2023-05-02T08:25:35;96820.58;;;30.83;27.09
34065;BME280;20339;49.754;20.158;2023-05-02T08:28:08;96819.80;;;31.44;26.19
34065;BME280;20339;49.754;20.158;2023-05-02T08:30:39;96821.92;;;31.88;25.75
34065;BME280;20339;49.754;20.158;2023-05-02T08:33:10;96817.76;;;31.89;25.00
34065;BME280;20339;49.754;20.158;2023-05-02T08:35:41;96812.70;;;32.29;25.27
34065;BME280;20339;49.754;20.158;2023-05-02T08:38:13;96815.84;;;32.92;24.13
34065;BME280;20339;49.754;20.158;2023-05-02T08:40:44;96812.85;;;33.80;24.44
34065;BME280;20339;49.754;20.158;2023-05-02T08:43:17;96810.41;;;34.70;23.71
34065;BME280;20339;49.754;20.158;2023-05-02T08:45:49;96803.69;;;34.45;22.19
34065;BME280;20339;49.754;20.158;2023-05-02T08:48:24;96807.27;;;34.59;23.37
34065;BME280;20339;49.754;20.158;2023-05-02T08:50:58;96801.11;;;34.79;22.63
34065;BME280;20339;49.754;20.158;2023-05-02T08:53:29;96800.70;;;35.50;22.88
34065;BME280;20339;49.754;20.158;2023-05-02T08:56:02;96799.15;;;36.13;22.39
34065;BME280;20339;49.754;20.158;2023-05-02T08:58:33;96797.58;;;35.63;20.24
34065;BME280;20339;49.754;20.158;2023-05-02T09:01:11;96790.11;;;34.13;20.95
34065;BME280;20339;49.754;20.158;2023-05-02T09:03:45;96788.27;;;33.66;21.32
34065;BME280;20339;49.754;20.158;2023-05-02T09:06:18;96786.10;;;33.05;22.43
34065;BME280;20339;49.754;20.158;2023-05-02T09:08:51;96787.92;;;33.04;22.91
34065;BME280;20339;49.754;20.158;2023-05-02T09:11:22;96786.51;;;33.00;22.73
34065;BME280;20339;49.754;20.158;2023-05-02T09:13:54;96785.13;;;32.33;23.13
34065;BME280;20339;49.754;20.158;2023-05-02T09:16:27;96785.86;;;32.16;23.78
34065;BME280;20339;49.754;20.158;2023-05-02T09:18:59;96792.41;;;31.13;22.87
34065;BME280;20339;49.754;20.158;2023-05-02T09:21:37;96798.83;;;29.18;24.42
34065;BME280;20339;49.754;20.158;2023-05-02T09:24:15;96803.17;;;26.72;25.83
34065;BME280;20339;49.754;20.158;2023-05-02T09:26:57;96803.24;;;25.52;27.30
34065;BME280;20339;49.754;20.158;2023-05-02T09:29:30;96798.78;;;24.69;28.83
34065;BME280;20339;49.754;20.158;2023-05-02T09:32:05;96800.33;;;24.12;29.86
34065;BME280;20339;49.754;20.158;2023-05-02T09:34:36;96799.78;;;23.93;30.93
34065;BME280;20339;49.754;20.158;2023-05-02T09:37:07;96799.30;;;23.36;31.30
34065;BME280;20339;49.754;20.158;2023-05-02T09:39:41;96802.55;;;22.85;32.26
34065;BME280;20339;49.754;20.158;2023-05-02T09:42:32;96798.34;;;22.54;32.77
34065;BME280;20339;49.754;20.158;2023-05-02T09:45:06;96799.46;;;22.08;34.14
34065;BME280;20339;49.754;20.158;2023-05-02T09:47:38;96796.86;;;21.94;33.65
34065;BME280;20339;49.754;20.158;2023-05-02T09:50:11;96792.37;;;22.16;34.26
34065;BME280;20339;49.754;20.158;2023-05-02T09:53:01;96790.77;;;22.37;34.51
34065;BME280;20339;49.754;20.158;2023-05-02T09:55:32;96796.17;;;22.33;33.87
34065;BME280;20339;49.754;20.158;2023-05-02T10:01:14;96783.37;;;22.44;33.74
34065;BME280;20339;49.754;20.158;2023-05-02T10:03:47;96794.32;;;22.06;33.60
34065;BME280;20339;49.754;20.158;2023-05-02T10:06:19;96790.48;;;21.98;34.03
34065;BME280;20339;49.754;20.158;2023-05-02T10:08:51;96786.16;;;22.06;34.70
34065;BME280;20339;49.754;20.158;2023-05-02T10:11:25;96782.66;;;22.14;34.69
34065;BME280;20339;49.754;20.158;2023-05-02T10:13:57;96788.14;;;21.94;34.86
34065;BME280;20339;49.754;20.158;2023-05-02T10:16:30;96789.96;;;21.90;34.52
34065;BME280;20339;49.754;20.158;2023-05-02T10:19:08;96787.62;;;22.01;33.64
34065;BME280;20339;49.754;20.158;2023-05-02T10:21:40;96790.98;;;21.75;33.91
34065;BME280;20339;49.754;20.158;2023-05-02T10:24:13;96794.16;;;21.50;34.07
34065;BME280;20339;49.754;20.158;2023-05-02T10:26:45;96798.27;;;21.34;34.19
34065;BME280;20339;49.754;20.158;2023-05-02T10:29:17;96795.14;;;21.40;34.66
34065;BME280;20339;49.754;20.158;2023-05-02T10:31:49;96797.06;;;21.52;34.61
34065;BME280;20339;49.754;20.158;2023-05-02T10:34:22;96791.60;;;21.35;34.55
34065;BME280;20339;49.754;20.158;2023-05-02T10:36:55;96795.71;;;21.07;34.57
34065;BME280;20339;49.754;20.158;2023-05-02T10:39:30;96798.34;;;21.05;34.60
34065;BME280;20339;49.754;20.158;2023-05-02T10:42:03;96796.63;;;20.98;34.80
34065;BME280;20339;49.754;20.158;2023-05-02T10:44:38;96790.10;;;20.99;34.85
34065;BME280;20339;49.754;20.158;2023-05-02T10:47:22;96790.83;;;20.93;35.55
34065;BME280;20339;49.754;20.158;2023-05-02T10:49:56;96790.55;;;21.34;36.22
34065;BME280;20339;49.754;20.158;2023-05-02T10:52:28;96782.31;;;21.92;35.87
34065;BME280;20339;49.754;20.158;2023-05-02T10:55:17;96778.70;;;22.04;35.37
34065;BME280;20339;49.754;20.158;2023-05-02T11:04:09;96773.58;;;22.31;34.94
34065;BME280;20339;49.754;20.158;2023-05-02T11:09:42;96769.75;;;22.10;34.95
34065;BME280;20339;49.754;20.158;2023-05-02T11:12:45;96768.34;;;22.09;35.21
34065;BME280;20339;49.754;20.158;2023-05-02T11:15:55;96760.71;;;22.42;35.54
34065;BME280;20339;49.754;20.158;2023-05-02T11:18:27;96765.40;;;22.65;35.73
34065;BME280;20339;49.754;20.158;2023-05-02T11:21:28;96757.86;;;22.87;35.16
34065;BME280;20339;49.754;20.158;2023-05-02T11:24:39;96765.38;;;22.44;34.08
34065;BME280;20339;49.754;20.158;2023-05-02T11:27:39;96768.61;;;22.11;34.49
34065;BME280;20339;49.754;20.158;2023-05-02T11:30:12;96765.48;;;22.03;35.01
34065;BME280;20339;49.754;20.158;2023-05-02T11:33:11;96769.58;;;21.94;35.02
34065;BME280;20339;49.754;20.158;2023-05-02T11:35:47;96764.74;;;21.89;34.95
34065;BME280;20339;49.754;20.158;2023-05-02T11:38:20;96765.84;;;21.72;35.38
34065;BME280;20339;49.754;20.158;2023-05-02T11:40:53;96771.44;;;21.53;35.25
34065;BME280;20339;49.754;20.158;2023-05-02T11:43:25;96779.20;;;21.11;36.04
34065;BME280;20339;49.754;20.158;2023-05-02T11:45:57;96781.09;;;20.76;36.78
34065;BME280;20339;49.754;20.158;2023-05-02T11:48:31;96786.53;;;20.48;38.38
34065;BME280;20339;49.754;20.158;2023-05-02T11:51:02;96783.38;;;20.19;38.49
34065;BME280;20339;49.754;20.158;2023-05-02T11:53:34;96781.27;;;19.92;38.73
34065;BME280;20339;49.754;20.158;2023-05-02T11:56:10;96778.77;;;19.84;39.32
34065;BME280;20339;49.754;20.158;2023-05-02T11:58:41;96780.69;;;20.19;39.85
34065;BME280;20339;49.754;20.158;2023-05-02T12:01:14;96771.27;;;20.49;38.30
34065;BME280;20339;49.754;20.158;2023-05-02T12:03:46;96771.73;;;20.59;38.47
34065;BME280;20339;49.754;20.158;2023-05-02T12:06:18;96774.31;;;20.66;39.10
34065;BME280;20339;49.754;20.158;2023-05-02T12:08:49;96786.60;;;20.38;43.47
34065;BME280;20339;49.754;20.158;2023-05-02T12:11:24;96796.63;;;19.63;45.12
34065;BME280;20339;49.754;20.158;2023-05-02T12:13:56;96789.19;;;19.26;44.00
34065;BME280;20339;49.754;20.158;2023-05-02T12:16:27;96785.34;;;19.41;43.89
34065;BME280;20339;49.754;20.158;2023-05-02T12:18:58;96782.38;;;19.77;43.85
34065;BME280;20339;49.754;20.158;2023-05-02T12:21:33;96782.33;;;20.06;43.08
34065;BME280;20339;49.754;20.158;2023-05-02T12:24:05;96774.88;;;20.25;42.37
34065;BME280;20339;49.754;20.158;2023-05-02T12:26:36;96775.61;;;20.58;42.56
34065;BME280;20339;49.754;20.158;2023-05-02T12:29:07;96772.66;;;20.83;42.07
34065;BME280;20339;49.754;20.158;2023-05-02T12:31:38;96772.06;;;20.96;41.43
34065;BME280;20339;49.754;20.158;2023-05-02T12:34:10;96771.15;;;21.16;41.68
34065;BME280;20339;49.754;20.158;2023-05-02T12:36:45;96775.23;;;21.43;40.21
34065;BME280;20339;49.754;20.158;2023-05-02T12:39:16;96770.32;;;21.49;39.24
34065;BME280;20339;49.754;20.158;2023-05-02T12:41:48;96775.62;;;21.51;39.01
34065;BME280;20339;49.754;20.158;2023-05-02T12:44:35;96780.36;;;21.53;38.41
34065;BME280;20339;49.754;20.158;2023-05-02T12:47:08;96779.55;;;21.43;38.76
34065;BME280;20339;49.754;20.158;2023-05-02T12:49:52;96778.59;;;20.96;39.27
34065;BME280;20339;49.754;20.158;2023-05-02T12:52:47;96790.35;;;20.37;40.81
34065;BME280;20339;49.754;20.158;2023-05-02T12:55:20;96784.45;;;20.17;42.02
34065;BME280;20339;49.754;20.158;2023-05-02T12:58:00;96795.73;;;19.79;42.98
34065;BME280;20339;49.754;20.158;2023-05-02T13:00:32;96793.38;;;19.47;43.85
34065;BME280;20339;49.754;20.158;2023-05-02T13:03:04;96788.77;;;19.21;44.35
34065;BME280;20339;49.754;20.158;2023-05-02T13:05:35;96793.02;;;19.03;44.56
34065;BME280;20339;49.754;20.158;2023-05-02T13:08:07;96795.38;;;18.92;44.54
34065;BME280;20339;49.754;20.158;2023-05-02T13:10:38;96799.77;;;18.84;44.61
34065;BME280;20339;49.754;20.158;2023-05-02T13:13:09;96788.89;;;18.83;44.52
34065;BME280;20339;49.754;20.158;2023-05-02T13:15:40;96793.05;;;18.81;43.76
34065;BME280;20339;49.754;20.158;2023-05-02T13:18:11;96794.20;;;18.79;43.46
34065;BME280;20339;49.754;20.158;2023-05-02T13:20:42;96798.88;;;18.67;43.37
34065;BME280;20339;49.754;20.158;2023-05-02T13:23:13;96807.05;;;18.49;43.67
34065;BME280;20339;49.754;20.158;2023-05-02T13:28:53;96809.89;;;18.29;43.03
34065;BME280;20339;49.754;20.158;2023-05-02T13:31:24;96816.46;;;18.29;43.55
34065;BME280;20339;49.754;20.158;2023-05-02T13:33:55;96820.14;;;18.18;43.88
34065;BME280;20339;49.754;20.158;2023-05-02T13:36:26;96826.89;;;18.01;44.45
34065;BME280;20339;49.754;20.158;2023-05-02T13:38:57;96832.10;;;17.88;45.04
34065;BME280;20339;49.754;20.158;2023-05-02T13:41:28;96845.76;;;17.70;45.78
34065;BME280;20339;49.754;20.158;2023-05-02T13:43:59;96860.61;;;17.41;46.45